sensor_id;sensor_type;location;lat;lon;timestamp;pressure;altitude;pressure_sealevel;temperature;humidity
49827;BME280;35715;51.570;6.036;2022-10-16T00:10:31;100925.66;;;13.87;97.33
49827;BME280;35715;51.570;6.036;2022-10-16T00:34:15;100931.09;;;13.92;98.03
49827;BME280;35715;51.570;6.036;2022-10-16T00:41:54;100932.59;;;13.88;98.11
49827;BME280;35715;51.570;6.036;2022-10-16T01:09:11;100930.44;;;13.64;98.73
49827;BME280;35715;51.570;6.036;2022-10-16T01:17:12;100928.31;;;13.57;99.09
49827;BME280;35715;51.570;6.036;2022-10-16T01:22:12;100919.81;;;13.60;99.16
49827;BME280;35715;51.570;6.036;2022-10-16T01:27:28;100920.25;;;13.53;98.67
49827;BME280;35715;51.570;6.036;2022-10-16T01:47:46;100927.56;;;13.30;99.51
49827;BME280;35715;51.570;6.036;2022-10-16T01:53:48;100936.88;;;13.26;99.44
49827;BME280;35715;51.570;6.036;2022-10-16T01:56:22;100936.78;;;13.25;99.48
49827;BME280;35715;51.570;6.036;2022-10-16T02:08:14;100938.28;;;13.21;99.78
49827;BME280;35715;51.570;6.036;2022-10-16T02:10:43;100946.16;;;13.23;99.76
49827;BME280;35715;51.570;6.036;2022-10-16T02:16:50;100944.00;;;13.16;99.46
49827;BME280;35715;51.570;6.036;2022-10-16T02:19:19;100945.00;;;13.18;99.60
49827;BME280;35715;51.570;6.036;2022-10-16T02:27:27;100950.28;;;13.19;99.59
49827;BME280;35715;51.570;6.036;2022-10-16T02:37:02;100935.53;;;13.18;98.93
49827;BME280;35715;51.570;6.036;2022-10-16T02:43:08;100933.84;;;13.19;98.95
49827;BME280;35715;51.570;6.036;2022-10-16T02:48:16;100940.09;;;13.22;99.09
49827;BME280;35715;51.570;6.036;2022-10-16T02:50:42;100937.31;;;13.19;99.05
49827;BME280;35715;51.570;6.036;2022-10-16T02:53:15;100940.00;;;13.21;98.74
49827;BME280;35715;51.570;6.036;2022-10-16T02:58:21;100945.09;;;13.19;99.03
49827;BME280;35715;51.570;6.036;2022-10-16T03:01:09;100931.25;;;13.19;99.07
49827;BME280;35715;51.570;6.036;2022-10-16T03:09:23;100925.16;;;13.18;99.01
49827;BME280;35715;51.570;6.036;2022-10-16T03:11:49;100923.66;;;13.22;98.88
49827;BME280;35715;51.570;6.036;2022-10-16T03:14:24;100922.66;;;13.20;99.04
49827;BME280;35715;51.570;6.036;2022-10-16T03:16:56;100931.34;;;13.20;99.02
49827;BME280;35715;51.570;6.036;2022-10-16T03:19:31;100933.94;;;13.20;99.07
49827;BME280;35715;51.570;6.036;2022-10-16T03:24:41;100936.53;;;13.20;99.20
49827;BME280;35715;51.570;6.036;2022-10-16T03:40:09;100949.75;;;13.25;99.67
49827;BME280;35715;51.570;6.036;2022-10-16T03:45:52;100955.72;;;13.24;98.91
49827;BME280;35715;51.570;6.036;2022-10-16T03:54:11;100950.81;;;13.28;99.10
49827;BME280;35715;51.570;6.036;2022-10-16T03:57:00;100962.97;;;13.29;99.48
49827;BME280;35715;51.570;6.036;2022-10-16T04:08:01;100982.09;;;13.31;99.24
49827;BME280;35715;51.570;6.036;2022-10-16T04:10:35;100982.78;;;13.29;99.46
49827;BME280;35715;51.570;6.036;2022-10-16T04:25:37;100992.88;;;13.24;99.55
49827;BME280;35715;51.570;6.036;2022-10-16T04:28:19;100992.00;;;13.24;99.77
49827;BME280;35715;51.570;6.036;2022-10-16T04:42:01;100992.69;;;13.21;100.00
49827;BME280;35715;51.570;6.036;2022-10-16T04:44:48;100997.00;;;13.21;100.00
49827;BME280;35715;51.570;6.036;2022-10-16T04:50:19;101015.94;;;13.20;99.75
49827;BME280;35715;51.570;6.036;2022-10-16T04:56:07;101021.13;;;13.20;99.94
49827;BME280;35715;51.570;6.036;2022-10-16T05:01:10;101029.72;;;13.19;99.77
49827;BME280;35715;51.570;6.036;2022-10-16T05:06:13;101035.69;;;13.18;100.00
49827;BME280;35715;51.570;6.036;2022-10-16T05:12:19;101041.28;;;13.10;100.00
49827;BME280;35715;51.570;6.036;2022-10-16T05:14:44;101034.41;;;13.11;100.00
49827;BME280;35715;51.570;6.036;2022-10-16T05:17:15;101024.97;;;13.11;100.00
49827;BME280;35715;51.570;6.036;2022-10-16T05:19:47;101035.31;;;13.11;100.00
49827;BME280;35715;51.570;6.036;2022-10-16T05:22:16;101036.13;;;13.10;100.00
49827;BME280;35715;51.570;6.036;2022-10-16T05:25:30;101040.91;;;13.04;100.00
49827;BME280;35715;51.570;6.036;2022-10-16T05:30:42;101051.97;;;13.02;100.00
49827;BME280;35715;51.570;6.036;2022-10-16T05:33:10;101050.31;;;13.02;100.00
49827;BME280;35715;51.570;6.036;2022-10-16T05:38:18;101057.06;;;13.00;100.00
49827;BME280;35715;51.570;6.036;2022-10-16T05:40:51;101062.25;;;13.00;100.00
49827;BME280;35715;51.570;6.036;2022-10-16T05:47:02;101062.88;;;12.96;100.00
49827;BME280;35715;51.570;6.036;2022-10-16T05:52:03;101069.66;;;12.94;100.00
49827;BME280;35715;51.570;6.036;2022-10-16T05:54:30;101087.78;;;12.94;100.00
49827;BME280;35715;51.570;6.036;2022-10-16T06:00:43;101095.16;;;12.88;100.00
49827;BME280;35715;51.570;6.036;2022-10-16T06:03:11;101106.31;;;12.87;100.00
49827;BME280;35715;51.570;6.036;2022-10-16T06:08:24;101118.38;;;12.86;100.00
49827;BME280;35715;51.570;6.036;2022-10-16T06:11:01;101124.16;;;12.82;100.00
49827;BME280;35715;51.570;6.036;2022-10-16T06:21:16;101145.22;;;12.73;100.00
49827;BME280;35715;51.570;6.036;2022-10-16T06:26:13;101159.22;;;12.77;100.00
49827;BME280;35715;51.570;6.036;2022-10-16T06:28:59;101155.84;;;12.78;100.00
49827;BME280;35715;51.570;6.036;2022-10-16T06:41:46;101169.28;;;12.72;100.00
49827;BME280;35715;51.570;6.036;2022-10-16T06:44:11;101179.84;;;12.75;100.00
49827;BME280;35715;51.570;6.036;2022-10-16T06:49:09;101189.50;;;12.78;100.00
49827;BME280;35715;51.570;6.036;2022-10-16T06:51:35;101193.97;;;12.81;100.00
49827;BME280;35715;51.570;6.036;2022-10-16T06:54:02;101189.91;;;12.84;100.00
49827;BME280;35715;51.570;6.036;2022-10-16T06:56:56;101183.03;;;12.85;100.00
49827;BME280;35715;51.570;6.036;2022-10-16T06:59:22;101195.38;;;12.89;100.00
49827;BME280;35715;51.570;6.036;2022-10-16T07:01:47;101193.06;;;12.93;100.00
49827;BME280;35715;51.570;6.036;2022-10-16T07:04:13;101196.84;;;12.99;100.00
49827;BME280;35715;51.570;6.036;2022-10-16T07:06:42;101201.44;;;13.03;100.00
49827;BME280;35715;51.570;6.036;2022-10-16T07:09:09;101206.72;;;13.04;100.00
49827;BME280;35715;51.570;6.036;2022-10-16T07:11:36;101206.22;;;13.10;100.00
49827;BME280;35715;51.570;6.036;2022-10-16T07:14:02;101212.56;;;13.15;100.00
49827;BME280;35715;51.570;6.036;2022-10-16T07:16:32;101212.75;;;13.18;100.00
49827;BME280;35715;51.570;6.036;2022-10-16T07:18:59;101212.94;;;13.21;100.00
49827;BME280;35715;51.570;6.036;2022-10-16T07:21:33;101223.88;;;13.30;100.00
49827;BME280;35715;51.570;6.036;2022-10-16T07:24:03;101226.19;;;13.39;100.00
49827;BME280;35715;51.570;6.036;2022-10-16T07:26:34;101243.75;;;13.43;100.00
49827;BME280;35715;51.570;6.036;2022-10-16T07:29:00;101236.94;;;13.45;100.00
49827;BME280;35715;51.570;6.036;2022-10-16T07:31:27;101239.91;;;13.52;100.00
49827;BME280;35715;51.570;6.036;2022-10-16T07:33:53;101249.00;;;13.58;100.00
49827;BME280;35715;51.570;6.036;2022-10-16T07:36:50;101254.47;;;13.63;100.00
49827;BME280;35715;51.570;6.036;2022-10-16T07:39:16;101264.50;;;13.72;100.00
49827;BME280;35715;51.570;6.036;2022-10-16T07:41:42;101260.66;;;13.80;100.00
49827;BME280;35715;51.570;6.036;2022-10-16T07:44:08;101262.22;;;13.91;100.00
49827;BME280;35715;51.570;6.036;2022-10-16T07:46:33;101270.19;;;13.94;100.00
49827;BME280;35715;51.570;6.036;2022-10-16T07:49:01;101268.97;;;14.02;100.00
49827;BME280;35715;51.570;6.036;2022-10-16T07:51:27;101273.16;;;14.15;100.00
49827;BME280;35715;51.570;6.036;2022-10-16T07:53:52;101274.63;;;14.25;100.00
49827;BME280;35715;51.570;6.036;2022-10-16T07:56:22;101282.88;;;14.33;100.00
49827;BME280;35715;51.570;6.036;2022-10-16T07:58:47;101290.50;;;14.45;100.00
49827;BME280;35715;51.570;6.036;2022-10-16T08:01:16;101295.25;;;14.67;100.00
49827;BME280;35715;51.570;6.036;2022-10-16T08:03:43;101288.06;;;14.93;100.00
49827;BME280;35715;51.570;6.036;2022-10-16T08:06:21;101296.63;;;15.21;98.55
49827;BME280;35715;51.570;6.036;2022-10-16T08:08:47;101298.72;;;15.75;97.88
49827;BME280;35715;51.570;6.036;2022-10-16T08:11:13;101309.44;;;16.30;93.57
49827;BME280;35715;51.570;6.036;2022-10-16T08:13:40;101311.44;;;16.53;90.11
49827;BME280;35715;51.570;6.036;2022-10-16T08:16:19;101319.50;;;16.57;87.91
49827;BME280;35715;51.570;6.036;2022-10-16T08:18:45;101324.41;;;16.35;87.96
49827;BME280;35715;51.570;6.036;2022-10-16T08:21:16;101318.66;;;16.24;87.45
49827;BME280;35715;51.570;6.036;2022-10-16T08:23:42;101321.50;;;16.12;87.50
49827;BME280;35715;51.570;6.036;2022-10-16T08:26:23;101318.19;;;15.98;86.63
49827;BME280;35715;51.570;6.036;2022-10-16T08:28:49;101321.47;;;15.79;88.58
49827;BME280;35715;51.570;6.036;2022-10-16T08:31:16;101329.47;;;15.99;88.33
49827;BME280;35715;51.570;6.036;2022-10-16T08:33:43;101329.22;;;16.10;87.93
49827;BME280;35715;51.570;6.036;2022-10-16T08:36:11;101343.41;;;16.16;87.55
49827;BME280;35715;51.570;6.036;2022-10-16T08:38:37;101344.84;;;16.10;87.40
49827;BME280;35715;51.570;6.036;2022-10-16T08:41:20;101350.53;;;16.03;86.63
49827;BME280;35715;51.570;6.036;2022-10-16T08:47:02;101350.69;;;16.23;86.31
49827;BME280;35715;51.570;6.036;2022-10-16T08:49:30;101350.47;;;16.18;86.41
49827;BME280;35715;51.570;6.036;2022-10-16T08:51:56;101349.19;;;16.10;86.49
49827;BME280;35715;51.570;6.036;2022-10-16T08:54:36;101358.09;;;15.99;85.94
49827;BME280;35715;51.570;6.036;2022-10-16T08:57:25;101357.53;;;16.04;85.10
49827;BME280;35715;51.570;6.036;2022-10-16T08:59:52;101362.34;;;16.13;85.54
49827;BME280;35715;51.570;6.036;2022-10-16T09:02:38;101362.75;;;16.21;85.35
49827;BME280;35715;51.570;6.036;2022-10-16T09:08:31;101362.03;;;16.40;85.19
49827;BME280;35715;51.570;6.036;2022-10-16T09:10:59;101372.78;;;16.46;85.48
49827;BME280;35715;51.570;6.036;2022-10-16T09:13:40;101378.78;;;16.45;84.57
49827;BME280;35715;51.570;6.036;2022-10-16T09:16:21;101371.69;;;16.42;84.82
49827;BME280;35715;51.570;6.036;2022-10-16T09:18:54;101380.75;;;16.32;84.44
49827;BME280;35715;51.570;6.036;2022-10-16T09:21:25;101386.44;;;16.42;84.01
49827;BME280;35715;51.570;6.036;2022-10-16T09:23:51;101392.59;;;16.60;83.71
49827;BME280;35715;51.570;6.036;2022-10-16T09:26:24;101391.63;;;16.58;83.47
49827;BME280;35715;51.570;6.036;2022-10-16T09:28:52;101395.13;;;16.59;83.58
49827;BME280;35715;51.570;6.036;2022-10-16T09:31:20;101396.94;;;16.60;83.33
49827;BME280;35715;51.570;6.036;2022-10-16T09:33:51;101400.88;;;16.70;82.96
49827;BME280;35715;51.570;6.036;2022-10-16T09:39:51;101402.03;;;16.75;81.79
49827;BME280;35715;51.570;6.036;2022-10-16T09:42:34;101401.50;;;16.82;80.46
49827;BME280;35715;51.570;6.036;2022-10-16T09:45:01;101393.38;;;16.92;82.05
49827;BME280;35715;51.570;6.036;2022-10-16T09:47:28;101405.13;;;17.00;80.91
49827;BME280;35715;51.570;6.036;2022-10-16T09:49:59;101401.97;;;17.08;80.47
49827;BME280;35715;51.570;6.036;2022-10-16T09:52:28;101399.94;;;17.18;81.08
49827;BME280;35715;51.570;6.036;2022-10-16T09:54:59;101403.06;;;17.65;78.35
49827;BME280;35715;51.570;6.036;2022-10-16T09:57:33;101412.09;;;18.88;73.92
49827;BME280;35715;51.570;6.036;2022-10-16T09:59:59;101402.00;;;20.52;67.95
49827;BME280;35715;51.570;6.036;2022-10-16T10:02:30;101400.41;;;21.88;62.72
49827;BME280;35715;51.570;6.036;2022-10-16T10:04:55;101403.00;;;22.79;59.52
49827;BME280;35715;51.570;6.036;2022-10-16T10:07:38;101397.09;;;23.59;53.90
49827;BME280;35715;51.570;6.036;2022-10-16T10:10:06;101398.06;;;24.47;54.61
49827;BME280;35715;51.570;6.036;2022-10-16T10:12:32;101405.47;;;25.12;52.09
49827;BME280;35715;51.570;6.036;2022-10-16T10:15:20;101397.50;;;25.64;48.51
49827;BME280;35715;51.570;6.036;2022-10-16T10:17:52;101411.63;;;26.32;46.19
49827;BME280;35715;51.570;6.036;2022-10-16T10:20:30;101407.81;;;26.85;42.76
49827;BME280;35715;51.570;6.036;2022-10-16T10:22:59;101419.47;;;27.05;43.73
49827;BME280;35715;51.570;6.036;2022-10-16T10:26:18;101423.03;;;27.07;43.06
49827;BME280;35715;51.570;6.036;2022-10-16T10:28:49;101415.34;;;27.40;43.00
49827;BME280;35715;51.570;6.036;2022-10-16T10:31:21;101422.66;;;27.75;42.14
49827;BME280;35715;51.570;6.036;2022-10-16T10:36:39;101425.53;;;26.90;41.95
49827;BME280;35715;51.570;6.036;2022-10-16T10:39:15;101430.56;;;25.39;43.96
49827;BME280;35715;51.570;6.036;2022-10-16T11:05:50;101428.38;;;29.91;34.71
49827;BME280;35715;51.570;6.036;2022-10-16T11:08:30;101433.63;;;30.11;35.11
49827;BME280;35715;51.570;6.036;2022-10-16T11:11:00;101439.00;;;30.02;34.45
49827;BME280;35715;51.570;6.036;2022-10-16T11:13:31;101443.50;;;29.86;32.79
49827;BME280;35715;51.570;6.036;2022-10-16T11:16:21;101449.56;;;30.17;33.54
49827;BME280;35715;51.570;6.036;2022-10-16T11:18:58;101446.06;;;30.09;32.12
49827;BME280;35715;51.570;6.036;2022-10-16T11:21:26;101453.06;;;30.41;32.66
49827;BME280;35715;51.570;6.036;2022-10-16T11:26:29;101445.25;;;28.91;34.70
49827;BME280;35715;51.570;6.036;2022-10-16T11:28:56;101433.44;;;27.98;36.40
49827;BME280;35715;51.570;6.036;2022-10-16T11:34:36;101439.63;;;28.00;35.70
49827;BME280;35715;51.570;6.036;2022-10-16T11:37:16;101443.03;;;26.07;39.00
49827;BME280;35715;51.570;6.036;2022-10-16T11:39:44;101444.41;;;26.45;39.97
49827;BME280;35715;51.570;6.036;2022-10-16T11:42:24;101436.63;;;27.51;37.01
49827;BME280;35715;51.570;6.036;2022-10-16T11:45:07;101442.31;;;26.92;37.05
49827;BME280;35715;51.570;6.036;2022-10-16T11:50:38;101445.78;;;26.12;38.80
49827;BME280;35715;51.570;6.036;2022-10-16T11:56:01;101454.81;;;26.31;39.43
49827;BME280;35715;51.570;6.036;2022-10-16T12:06:13;101462.03;;;28.62;34.65
49827;BME280;35715;51.570;6.036;2022-10-16T12:08:43;101463.84;;;28.80;35.42
49827;BME280;35715;51.570;6.036;2022-10-16T12:19:03;101469.16;;;28.83;35.65
49827;BME280;35715;51.570;6.036;2022-10-16T12:21:36;101465.13;;;27.83;36.58
49827;BME280;35715;51.570;6.036;2022-10-16T12:24:03;101460.81;;;26.89;38.09
49827;BME280;35715;51.570;6.036;2022-10-16T12:26:44;101467.41;;;25.84;40.03
49827;BME280;35715;51.570;6.036;2022-10-16T12:30:06;101466.91;;;25.52;41.06
49827;BME280;35715;51.570;6.036;2022-10-16T12:35:49;101471.19;;;24.96;41.86
49827;BME280;35715;51.570;6.036;2022-10-16T12:41:33;101470.44;;;24.15;42.49
49827;BME280;35715;51.570;6.036;2022-10-16T12:44:00;101468.97;;;23.90;44.64
49827;BME280;35715;51.570;6.036;2022-10-16T12:51:40;101471.97;;;23.00;45.64
49827;BME280;35715;51.570;6.036;2022-10-16T12:54:22;101468.66;;;22.74;45.45
49827;BME280;35715;51.570;6.036;2022-10-16T13:00:32;101458.38;;;22.52;46.38
49827;BME280;35715;51.570;6.036;2022-10-16T13:23:23;101465.69;;;22.04;48.44
49827;BME280;35715;51.570;6.036;2022-10-16T13:28:38;101457.97;;;21.82;49.61
49827;BME280;35715;51.570;6.036;2022-10-16T13:31:15;101470.53;;;21.90;49.62
49827;BME280;35715;51.570;6.036;2022-10-16T13:33:59;101486.91;;;22.10;50.20
49827;BME280;35715;51.570;6.036;2022-10-16T13:44:26;101484.09;;;22.63;48.22
49827;BME280;35715;51.570;6.036;2022-10-16T13:47:00;101478.41;;;22.48;48.54
49827;BME280;35715;51.570;6.036;2022-10-16T13:49:26;101477.31;;;22.40;49.74
49827;BME280;35715;51.570;6.036;2022-10-16T13:51:56;101489.41;;;22.35;48.92
49827;BME280;35715;51.570;6.036;2022-10-16T13:54:23;101497.94;;;22.27;48.81
49827;BME280;35715;51.570;6.036;2022-10-16T13:57:04;101496.75;;;22.18;49.17
49827;BME280;35715;51.570;6.036;2022-10-16T13:59:43;101495.66;;;22.09;49.41
49827;BME280;35715;51.570;6.036;2022-10-16T14:04:56;101498.00;;;22.00;50.11
49827;BME280;35715;51.570;6.036;2022-10-16T14:12:23;101505.00;;;22.01;50.69
49827;BME280;35715;51.570;6.036;2022-10-16T14:14:52;101499.84;;;22.04;50.63
49827;BME280;35715;51.570;6.036;2022-10-16T14:22:59;101496.94;;;21.95;51.38
49827;BME280;35715;51.570;6.036;2022-10-16T14:30:24;101504.34;;;21.79;51.10
49827;BME280;35715;51.570;6.036;2022-10-16T14:33:03;101507.00;;;21.81;51.90
49827;BME280;35715;51.570;6.036;2022-10-16T14:37:58;101501.81;;;21.55;52.21
49827;BME280;35715;51.570;6.036;2022-10-16T14:40:28;101494.53;;;21.48;52.84
49827;BME280;35715;51.570;6.036;2022-10-16T14:42:56;101486.66;;;21.48;52.58
49827;BME280;35715;51.570;6.036;2022-10-16T14:45:30;101489.94;;;21.41;53.39
49827;BME280;35715;51.570;6.036;2022-10-16T14:47:59;101483.97;;;21.47;53.51
49827;BME280;35715;51.570;6.036;2022-10-16T14:50:50;101494.38;;;21.43;54.08
49827;BME280;35715;51.570;6.036;2022-10-16T14:53:21;101494.31;;;21.42;53.88
49827;BME280;35715;51.570;6.036;2022-10-16T15:04:53;101481.25;;;21.18;54.34
49827;BME280;35715;51.570;6.036;2022-10-16T15:07:25;101490.19;;;21.23;54.54
49827;BME280;35715;51.570;6.036;2022-10-16T15:09:51;101496.28;;;21.22;55.18
49827;BME280;35715;51.570;6.036;2022-10-16T15:12:17;101489.28;;;21.22;55.40
49827;BME280;35715;51.570;6.036;2022-10-16T15:14:50;101485.88;;;21.25;55.28
49827;BME280;35715;51.570;6.036;2022-10-16T15:17:24;101490.81;;;21.16;55.61
49827;BME280;35715;51.570;6.036;2022-10-16T15:20:21;101488.66;;;21.04;55.73
49827;BME280;35715;51.570;6.036;2022-10-16T15:25:57;101465.66;;;20.97;56.07
49827;BME280;35715;51.570;6.036;2022-10-16T15:28:24;101478.59;;;20.92;55.95
49827;BME280;35715;51.570;6.036;2022-10-16T15:30:52;101476.56;;;20.83;56.46
49827;BME280;35715;51.570;6.036;2022-10-16T15:33:20;101481.06;;;20.87;56.33
49827;BME280;35715;51.570;6.036;2022-10-16T15:35:50;101481.78;;;20.82;56.58
49827;BME280;35715;51.570;6.036;2022-10-16T15:38:17;101476.56;;;20.83;56.65
49827;BME280;35715;51.570;6.036;2022-10-16T15:40:44;101483.38;;;20.78;56.67
49827;BME280;35715;51.570;6.036;2022-10-16T15:43:09;101484.78;;;20.68;56.89
49827;BME280;35715;51.570;6.036;2022-10-16T15:45:36;101473.47;;;20.71;57.19
49827;BME280;35715;51.570;6.036;2022-10-16T15:48:02;101475.13;;;20.67;57.26
49827;BME280;35715;51.570;6.036;2022-10-16T15:50:27;101474.81;;;20.60;57.87
49827;BME280;35715;51.570;6.036;2022-10-16T15:52:53;101483.50;;;20.59;57.32
49827;BME280;35715;51.570;6.036;2022-10-16T15:55:20;101480.22;;;20.64;57.12
49827;BME280;35715;51.570;6.036;2022-10-16T15:57:45;101474.22;;;20.67;57.64
49827;BME280;35715;51.570;6.036;2022-10-16T16:00:17;101474.84;;;20.61;59.04
49827;BME280;35715;51.570;6.036;2022-10-16T16:02:44;101464.91;;;20.52;59.85
49827;BME280;35715;51.570;6.036;2022-10-16T16:05:17;101469.94;;;20.46;60.16
49827;BME280;35715;51.570;6.036;2022-10-16T16:07:43;101465.28;;;20.39;59.83
49827;BME280;35715;51.570;6.036;2022-10-16T16:10:10;101465.25;;;20.37;59.81
49827;BME280;35715;51.570;6.036;2022-10-16T16:12:37;101476.63;;;20.38;59.91
49827;BME280;35715;51.570;6.036;2022-10-16T16:15:06;101476.53;;;20.35;60.34
49827;BME280;35715;51.570;6.036;2022-10-16T16:17:32;101484.91;;;20.26;60.93
49827;BME280;35715;51.570;6.036;2022-10-16T16:19:57;101497.09;;;20.26;61.94
49827;BME280;35715;51.570;6.036;2022-10-16T16:22:23;101490.94;;;20.24;62.33
49827;BME280;35715;51.570;6.036;2022-10-16T16:24:48;101481.72;;;20.11;62.39
49827;BME280;35715;51.570;6.036;2022-10-16T16:27:14;101480.50;;;20.02;62.92
49827;BME280;35715;51.570;6.036;2022-10-16T16:29:40;101477.53;;;19.93;63.55
49827;BME280;35715;51.570;6.036;2022-10-16T16:32:05;101467.38;;;19.80;63.93
49827;BME280;35715;51.570;6.036;2022-10-16T16:34:30;101465.31;;;19.73;64.72
49827;BME280;35715;51.570;6.036;2022-10-16T16:36:58;101469.94;;;19.57;65.20
49827;BME280;35715;51.570;6.036;2022-10-16T16:39:23;101487.63;;;19.42;65.34
49827;BME280;35715;51.570;6.036;2022-10-16T16:41:50;101490.81;;;19.35;65.42
49827;BME280;35715;51.570;6.036;2022-10-16T16:44:16;101484.50;;;19.29;65.38
49827;BME280;35715;51.570;6.036;2022-10-16T16:49:29;101495.81;;;19.09;65.99
49827;BME280;35715;51.570;6.036;2022-10-16T16:51:55;101492.81;;;19.00;65.87
49827;BME280;35715;51.570;6.036;2022-10-16T16:54:20;101495.16;;;18.93;66.99
49827;BME280;35715;51.570;6.036;2022-10-16T16:57:14;101498.72;;;18.95;66.92
49827;BME280;35715;51.570;6.036;2022-10-16T16:59:39;101505.88;;;19.00;67.74
49827;BME280;35715;51.570;6.036;2022-10-16T17:02:08;101512.09;;;19.02;68.00
49827;BME280;35715;51.570;6.036;2022-10-16T17:04:33;101515.72;;;19.05;68.38
49827;BME280;35715;51.570;6.036;2022-10-16T17:07:03;101517.78;;;19.12;68.43
49827;BME280;35715;51.570;6.036;2022-10-16T17:09:31;101516.13;;;19.14;68.73
49827;BME280;35715;51.570;6.036;2022-10-16T17:11:57;101512.38;;;19.08;68.83
49827;BME280;35715;51.570;6.036;2022-10-16T17:14:22;101511.38;;;19.06;68.78
49827;BME280;35715;51.570;6.036;2022-10-16T17:16:49;101511.25;;;19.03;69.14
49827;BME280;35715;51.570;6.036;2022-10-16T17:19:18;101521.84;;;19.06;69.19
49827;BME280;35715;51.570;6.036;2022-10-16T17:21:43;101522.81;;;19.08;69.21
49827;BME280;35715;51.570;6.036;2022-10-16T17:24:09;101518.41;;;19.07;69.33
49827;BME280;35715;51.570;6.036;2022-10-16T17:26:35;101514.78;;;19.03;69.52
49827;BME280;35715;51.570;6.036;2022-10-16T17:29:03;101525.09;;;19.00;69.95
49827;BME280;35715;51.570;6.036;2022-10-16T17:31:31;101523.19;;;18.96;70.51
49827;BME280;35715;51.570;6.036;2022-10-16T17:33:58;101524.16;;;18.80;70.90
49827;BME280;35715;51.570;6.036;2022-10-16T17:36:30;101512.88;;;18.61;70.37
49827;BME280;35715;51.570;6.036;2022-10-16T17:38:58;101513.69;;;18.60;70.10
49827;BME280;35715;51.570;6.036;2022-10-16T17:41:26;101499.53;;;18.55;70.47
49827;BME280;35715;51.570;6.036;2022-10-16T17:43:51;101491.41;;;18.49;70.42
49827;BME280;35715;51.570;6.036;2022-10-16T17:46:20;101499.94;;;18.45;70.84
49827;BME280;35715;51.570;6.036;2022-10-16T17:48:48;101491.94;;;18.42;71.22
49827;BME280;35715;51.570;6.036;2022-10-16T17:51:16;101494.44;;;18.39;71.70
49827;BME280;35715;51.570;6.036;2022-10-16T17:53:42;101495.72;;;18.29;71.71
49827;BME280;35715;51.570;6.036;2022-10-16T17:56:12;101503.28;;;18.23;71.45
49827;BME280;35715;51.570;6.036;2022-10-16T17:58:39;101499.69;;;18.21;71.97
49827;BME280;35715;51.570;6.036;2022-10-16T18:01:16;101501.78;;;18.28;71.87
49827;BME280;35715;51.570;6.036;2022-10-16T18:03:41;101499.09;;;18.26;72.35
49827;BME280;35715;51.570;6.036;2022-10-16T18:06:08;101498.88;;;18.22;72.11
49827;BME280;35715;51.570;6.036;2022-10-16T18:08:36;101503.75;;;18.14;73.08
49827;BME280;35715;51.570;6.036;2022-10-16T18:11:02;101509.47;;;18.07;73.48
49827;BME280;35715;51.570;6.036;2022-10-16T18:13:28;101513.69;;;18.03;73.93
49827;BME280;35715;51.570;6.036;2022-10-16T18:16:07;101516.44;;;18.06;73.53
49827;BME280;35715;51.570;6.036;2022-10-16T18:18:34;101525.06;;;18.05;72.84
49827;BME280;35715;51.570;6.036;2022-10-16T18:21:02;101519.25;;;18.11;72.94
49827;BME280;35715;51.570;6.036;2022-10-16T18:23:27;101521.81;;;18.09;73.37
49827;BME280;35715;51.570;6.036;2022-10-16T18:25:53;101517.69;;;18.15;73.70
49827;BME280;35715;51.570;6.036;2022-10-16T18:28:19;101519.41;;;18.14;73.24
49827;BME280;35715;51.570;6.036;2022-10-16T18:30:44;101516.88;;;18.16;73.21
49827;BME280;35715;51.570;6.036;2022-10-16T18:33:10;101522.09;;;18.16;73.27
49827;BME280;35715;51.570;6.036;2022-10-16T18:35:38;101537.25;;;18.05;73.44
49827;BME280;35715;51.570;6.036;2022-10-16T18:38:05;101553.59;;;18.01;74.00
49827;BME280;35715;51.570;6.036;2022-10-16T18:40:30;101595.44;;;18.02;74.22
49827;BME280;35715;51.570;6.036;2022-10-16T18:42:55;101623.72;;;18.11;74.48
49827;BME280;35715;51.570;6.036;2022-10-16T18:45:34;101623.13;;;18.17;75.14
49827;BME280;35715;51.570;6.036;2022-10-16T18:47:59;101614.75;;;18.24;75.93
49827;BME280;35715;51.570;6.036;2022-10-16T18:50:25;101620.13;;;18.27;76.06
49827;BME280;35715;51.570;6.036;2022-10-16T18:52:50;101617.53;;;18.27;76.31
49827;BME280;35715;51.570;6.036;2022-10-16T18:55:24;101612.91;;;18.21;76.28
49827;BME280;35715;51.570;6.036;2022-10-16T18:57:50;101607.91;;;18.08;75.92
49827;BME280;35715;51.570;6.036;2022-10-16T19:00:15;101619.09;;;18.05;77.52
49827;BME280;35715;51.570;6.036;2022-10-16T19:02:41;101625.03;;;18.03;77.92
49827;BME280;35715;51.570;6.036;2022-10-16T19:05:09;101619.75;;;18.01;79.03
49827;BME280;35715;51.570;6.036;2022-10-16T19:07:35;101616.19;;;17.99;79.79
49827;BME280;35715;51.570;6.036;2022-10-16T19:10:00;101603.03;;;17.98;80.10
49827;BME280;35715;51.570;6.036;2022-10-16T19:12:25;101608.03;;;17.93;80.37
49827;BME280;35715;51.570;6.036;2022-10-16T19:14:51;101589.28;;;17.84;80.84
49827;BME280;35715;51.570;6.036;2022-10-16T19:17:24;101582.22;;;17.65;81.63
49827;BME280;35715;51.570;6.036;2022-10-16T19:19:50;101566.69;;;17.50;82.62
49827;BME280;35715;51.570;6.036;2022-10-16T19:22:15;101572.75;;;17.32;83.85
49827;BME280;35715;51.570;6.036;2022-10-16T19:24:54;101587.00;;;17.39;83.48
49827;BME280;35715;51.570;6.036;2022-10-16T19:27:34;101581.53;;;17.51;83.19
49827;BME280;35715;51.570;6.036;2022-10-16T19:29:59;101583.41;;;17.53;82.65
49827;BME280;35715;51.570;6.036;2022-10-16T19:32:26;101591.22;;;17.53;81.96
49827;BME280;35715;51.570;6.036;2022-10-16T19:34:51;101594.34;;;17.46;82.58
49827;BME280;35715;51.570;6.036;2022-10-16T19:37:17;101588.97;;;17.43;82.67